Terminal Aerodrome Forecast
Issued by NWS Charleston, WV

Current Version | Previous Version | Text Only | Print | Product List | Glossary Off
Versions: 1 2 3 4 5 6 7 8 9 10 11 12 13 14 15 16 17 18 19 20 21 22 23 24 25 26 27 28 29

000
FTUS41 KRLX 211700
TAFEKN
TAF
KEKN 211739Z 2118/2218 26015G23KT P6SM SKC
     FM212000 26014G25KT P6SM OVC035
      TEMPO 2120/2122 VRB15G30KT 3SM TSRA OVC021CB
     FM212300 28010G18KT P6SM BKN030
     FM220700 30007KT P6SM BKN020
     FM221600 30008KT P6SM SCT030=

USA.gov is the U.S. government's official web portal to all federal, state and local government web resources and services.